Saint-Lin, Canada
Current Conditions -  °F | °C
As of 6:00 AM on Thursday 23 Oct 2014 (Local Time) from CYMX Reporting Station
Broken Clouds Broken Clouds  
Wind Chill: 41°   Ceiling: 8000
Heat Index: 46°   Visibility: 25mi
Dew Point: 30°   Wind: 10mph
Humidity: 53%   Direction: 30°NNE
Pressure: 30.13"   Gusts: 22mph
Location:  45.85°N, 73.77°W
Report Text: CYMX 231000Z 03009G19KT 350V070 25SM SCT035 BKN080 08/M01 A3013 RMK SC4AC3 SLP204
Loading
Personal Weather Stations






























Interactive Weather Map New forecast layout! Learn more

10-Day Weather Forecast

Advertisements
Track Severe Weather on mobile